sensor_id;sensor_type;location;lat;lon;timestamp;pressure;altitude;pressure_sealevel;temperature;humidity
31771;BME280;18343;50.152;8.182;2023-04-02T00:01:18;96519.69;;;10.94;100.00
31771;BME280;18343;50.152;8.182;2023-04-02T00:04:17;96519.47;;;10.96;100.00
31771;BME280;18343;50.152;8.182;2023-04-02T00:07:22;96521.94;;;10.97;100.00
31771;BME280;18343;50.152;8.182;2023-04-02T00:10:26;96525.94;;;10.88;100.00
31771;BME280;18343;50.152;8.182;2023-04-02T00:13:23;96532.38;;;10.87;100.00
31771;BME280;18343;50.152;8.182;2023-04-02T00:16:12;96534.44;;;10.85;100.00
31771;BME280;18343;50.152;8.182;2023-04-02T00:19:00;96540.66;;;10.85;100.00
31771;BME280;18343;50.152;8.182;2023-04-02T00:21:48;96540.44;;;10.87;100.00
31771;BME280;18343;50.152;8.182;2023-04-02T00:24:34;96535.06;;;10.87;100.00
31771;BME280;18343;50.152;8.182;2023-04-02T00:27:19;96539.00;;;10.84;100.00
31771;BME280;18343;50.152;8.182;2023-04-02T00:30:06;96540.88;;;10.84;100.00
31771;BME280;18343;50.152;8.182;2023-04-02T00:32:51;96544.59;;;10.83;100.00
31771;BME280;18343;50.152;8.182;2023-04-02T00:35:38;96544.38;;;10.84;100.00
31771;BME280;18343;50.152;8.182;2023-04-02T00:38:26;96544.00;;;10.81;100.00
31771;BME280;18343;50.152;8.182;2023-04-02T00:41:17;96550.19;;;10.81;100.00
31771;BME280;18343;50.152;8.182;2023-04-02T00:44:04;96543.16;;;10.80;100.00
31771;BME280;18343;50.152;8.182;2023-04-02T00:46:50;96550.63;;;10.78;100.00
31771;BME280;18343;50.152;8.182;2023-04-02T00:49:38;96552.28;;;10.79;100.00
31771;BME280;18343;50.152;8.182;2023-04-02T00:52:26;96550.00;;;10.76;100.00
31771;BME280;18343;50.152;8.182;2023-04-02T00:55:18;96559.94;;;10.76;100.00
31771;BME280;18343;50.152;8.182;2023-04-02T00:58:18;96562.41;;;10.77;100.00
31771;BME280;18343;50.152;8.182;2023-04-02T01:01:16;96566.53;;;10.80;100.00
31771;BME280;18343;50.152;8.182;2023-04-02T01:04:03;96570.69;;;10.76;100.00
31771;BME280;18343;50.152;8.182;2023-04-02T01:06:48;96574.22;;;10.76;100.00
31771;BME280;18343;50.152;8.182;2023-04-02T01:10:03;96575.25;;;10.75;100.00
31771;BME280;18343;50.152;8.182;2023-04-02T01:13:01;96581.66;;;10.74;100.00
31771;BME280;18343;50.152;8.182;2023-04-02T01:15:55;96588.09;;;10.73;100.00
31771;BME280;18343;50.152;8.182;2023-04-02T01:18:51;96578.38;;;10.72;100.00
31771;BME280;18343;50.152;8.182;2023-04-02T01:21:52;96587.91;;;10.68;100.00
31771;BME280;18343;50.152;8.182;2023-04-02T01:24:40;96578.03;;;10.62;100.00
31771;BME280;18343;50.152;8.182;2023-04-02T01:27:28;96585.06;;;10.57;100.00
31771;BME280;18343;50.152;8.182;2023-04-02T01:30:18;96589.00;;;10.54;100.00
31771;BME280;18343;50.152;8.182;2023-04-02T01:33:04;96589.84;;;10.55;100.00
31771;BME280;18343;50.152;8.182;2023-04-02T01:35:55;96596.25;;;10.54;100.00
31771;BME280;18343;50.152;8.182;2023-04-02T01:38:47;96597.91;;;10.55;100.00
31771;BME280;18343;50.152;8.182;2023-04-02T01:41:41;96593.56;;;10.54;100.00
31771;BME280;18343;50.152;8.182;2023-04-02T01:44:37;96595.22;;;10.55;100.00
31771;BME280;18343;50.152;8.182;2023-04-02T01:47:25;96607.41;;;10.57;100.00
31771;BME280;18343;50.152;8.182;2023-04-02T01:50:23;96606.78;;;10.62;100.00
31771;BME280;18343;50.152;8.182;2023-04-02T01:53:11;96606.16;;;10.60;100.00
31771;BME280;18343;50.152;8.182;2023-04-02T01:55:59;96615.25;;;10.59;100.00
31771;BME280;18343;50.152;8.182;2023-04-02T01:58:45;96615.25;;;10.59;100.00
31771;BME280;18343;50.152;8.182;2023-04-02T02:01:33;96617.94;;;10.59;100.00
31771;BME280;18343;50.152;8.182;2023-04-02T02:04:21;96618.16;;;10.57;100.00
31771;BME280;18343;50.152;8.182;2023-04-02T02:07:13;96622.50;;;10.58;100.00
31771;BME280;18343;50.152;8.182;2023-04-02T02:09:58;96631.59;;;10.57;100.00
31771;BME280;18343;50.152;8.182;2023-04-02T02:12:43;96630.56;;;10.58;100.00
31771;BME280;18343;50.152;8.182;2023-04-02T02:15:31;96628.09;;;10.57;100.00
31771;BME280;18343;50.152;8.182;2023-04-02T02:18:20;96642.56;;;10.56;100.00
31771;BME280;18343;50.152;8.182;2023-04-02T02:21:07;96639.25;;;10.54;100.00
31771;BME280;18343;50.152;8.182;2023-04-02T02:23:54;96648.97;;;10.55;100.00
31771;BME280;18343;50.152;8.182;2023-04-02T02:26:40;96645.47;;;10.54;100.00
31771;BME280;18343;50.152;8.182;2023-04-02T02:29:27;96658.06;;;10.54;100.00
31771;BME280;18343;50.152;8.182;2023-04-02T02:32:15;96654.13;;;10.56;100.00
31771;BME280;18343;50.152;8.182;2023-04-02T02:35:06;96651.84;;;10.60;100.00
31771;BME280;18343;50.152;8.182;2023-04-02T02:38:16;96668.59;;;10.62;100.00
31771;BME280;18343;50.152;8.182;2023-04-02T02:41:10;96662.19;;;10.63;100.00
31771;BME280;18343;50.152;8.182;2023-04-02T02:44:01;96666.53;;;10.64;100.00
31771;BME280;18343;50.152;8.182;2023-04-02T02:46:51;96668.78;;;10.67;100.00
31771;BME280;18343;50.152;8.182;2023-04-02T02:49:41;96679.31;;;10.68;100.00
31771;BME280;18343;50.152;8.182;2023-04-02T02:52:29;96682.84;;;10.69;100.00
31771;BME280;18343;50.152;8.182;2023-04-02T02:55:19;96682.84;;;10.69;100.00
31771;BME280;18343;50.152;8.182;2023-04-02T02:58:08;96687.16;;;10.70;100.00
31771;BME280;18343;50.152;8.182;2023-04-02T03:00:55;96691.31;;;10.72;100.00
31771;BME280;18343;50.152;8.182;2023-04-02T03:03:39;96692.34;;;10.71;100.00
31771;BME280;18343;50.152;8.182;2023-04-02T03:06:24;96694.81;;;10.73;100.00
31771;BME280;18343;50.152;8.182;2023-04-02T03:09:17;96694.81;;;10.73;100.00
31771;BME280;18343;50.152;8.182;2023-04-02T03:12:23;96704.13;;;10.70;100.00
31771;BME280;18343;50.152;8.182;2023-04-02T03:15:19;96707.84;;;10.69;100.00
31771;BME280;18343;50.152;8.182;2023-04-02T03:18:10;96714.88;;;10.70;100.00
31771;BME280;18343;50.152;8.182;2023-04-02T03:21:01;96714.88;;;10.70;100.00
31771;BME280;18343;50.152;8.182;2023-04-02T03:23:53;96726.25;;;10.72;100.00
31771;BME280;18343;50.152;8.182;2023-04-02T03:26:43;96722.13;;;10.70;100.00
31771;BME280;18343;50.152;8.182;2023-04-02T03:29:33;96728.53;;;10.69;100.00
31771;BME280;18343;50.152;8.182;2023-04-02T03:32:22;96733.75;;;10.64;100.00
31771;BME280;18343;50.152;8.182;2023-04-02T03:35:18;96736.25;;;10.59;100.00
31771;BME280;18343;50.152;8.182;2023-04-02T03:38:12;96742.66;;;10.51;100.00
31771;BME280;18343;50.152;8.182;2023-04-02T03:41:05;96743.28;;;10.46;100.00
31771;BME280;18343;50.152;8.182;2023-04-02T03:43:53;96749.69;;;10.45;100.00
31771;BME280;18343;50.152;8.182;2023-04-02T03:46:43;96748.66;;;10.46;100.00
31771;BME280;18343;50.152;8.182;2023-04-02T03:49:35;96751.97;;;10.48;100.00
31771;BME280;18343;50.152;8.182;2023-04-02T03:52:25;96761.47;;;10.51;100.00
31771;BME280;18343;50.152;8.182;2023-04-02T03:55:13;96765.41;;;10.48;100.00
31771;BME280;18343;50.152;8.182;2023-04-02T03:58:03;96771.41;;;10.50;100.00
31771;BME280;18343;50.152;8.182;2023-04-02T04:00:54;96771.41;;;10.50;100.00
31771;BME280;18343;50.152;8.182;2023-04-02T04:03:44;96776.16;;;10.48;100.00
31771;BME280;18343;50.152;8.182;2023-04-02T04:06:32;96777.19;;;10.47;100.00
31771;BME280;18343;50.152;8.182;2023-04-02T04:09:22;96780.50;;;10.49;100.00
31771;BME280;18343;50.152;8.182;2023-04-02T04:12:19;96784.00;;;10.50;100.00
31771;BME280;18343;50.152;8.182;2023-04-02T04:15:14;96787.31;;;10.52;100.00
31771;BME280;18343;50.152;8.182;2023-04-02T04:18:07;96799.94;;;10.51;100.00
31771;BME280;18343;50.152;8.182;2023-04-02T04:20:58;96801.59;;;10.52;100.00
31771;BME280;18343;50.152;8.182;2023-04-02T04:23:49;96801.78;;;10.51;100.00
31771;BME280;18343;50.152;8.182;2023-04-02T04:26:41;96801.78;;;10.51;100.00
31771;BME280;18343;50.152;8.182;2023-04-02T04:29:34;96810.69;;;10.51;100.00
31771;BME280;18343;50.152;8.182;2023-04-02T04:32:27;96813.59;;;10.50;100.00
31771;BME280;18343;50.152;8.182;2023-04-02T04:35:19;96814.41;;;10.50;100.00
31771;BME280;18343;50.152;8.182;2023-04-02T04:38:13;96825.38;;;10.49;100.00
31771;BME280;18343;50.152;8.182;2023-04-02T04:41:04;96829.50;;;10.45;100.00
31771;BME280;18343;50.152;8.182;2023-04-02T04:43:57;96844.16;;;10.42;100.00
31771;BME280;18343;50.152;8.182;2023-04-02T04:46:48;96834.47;;;10.41;100.00
31771;BME280;18343;50.152;8.182;2023-04-02T04:49:42;96838.81;;;10.42;100.00
31771;BME280;18343;50.152;8.182;2023-04-02T04:52:32;96845.22;;;10.41;100.00
31771;BME280;18343;50.152;8.182;2023-04-02T04:55:27;96851.19;;;10.43;100.00
31771;BME280;18343;50.152;8.182;2023-04-02T04:58:20;96846.88;;;10.42;100.00
31771;BME280;18343;50.152;8.182;2023-04-02T05:01:11;96861.97;;;10.43;100.00
31771;BME280;18343;50.152;8.182;2023-04-02T05:04:02;96865.69;;;10.42;100.00
31771;BME280;18343;50.152;8.182;2023-04-02T05:06:52;96867.53;;;10.42;100.00
31771;BME280;18343;50.152;8.182;2023-04-02T05:09:41;96866.50;;;10.43;100.00
31771;BME280;18343;50.152;8.182;2023-04-02T05:12:34;96869.63;;;10.46;100.00
31771;BME280;18343;50.152;8.182;2023-04-02T05:15:25;96875.81;;;10.47;100.00
31771;BME280;18343;50.152;8.182;2023-04-02T05:18:19;96883.69;;;10.48;100.00
31771;BME280;18343;50.152;8.182;2023-04-02T05:21:15;96885.34;;;10.49;100.00
31771;BME280;18343;50.152;8.182;2023-04-02T05:24:38;96891.53;;;10.50;100.00
31771;BME280;18343;50.152;8.182;2023-04-02T05:27:35;96893.81;;;10.46;100.00
31771;BME280;18343;50.152;8.182;2023-04-02T05:30:44;96900.84;;;10.47;100.00
31771;BME280;18343;50.152;8.182;2023-04-02T05:33:32;96906.41;;;10.46;100.00
31771;BME280;18343;50.152;8.182;2023-04-02T05:36:21;96902.91;;;10.45;100.00
31771;BME280;18343;50.152;8.182;2023-04-02T05:39:09;96898.56;;;10.44;100.00
31771;BME280;18343;50.152;8.182;2023-04-02T05:41:59;96915.09;;;10.48;100.00
31771;BME280;18343;50.152;8.182;2023-04-02T05:45:02;96920.09;;;10.51;100.00
31771;BME280;18343;50.152;8.182;2023-04-02T05:47:52;96917.59;;;10.49;100.00
31771;BME280;18343;50.152;8.182;2023-04-02T05:50:42;96926.50;;;10.50;100.00
31771;BME280;18343;50.152;8.182;2023-04-02T05:53:30;96927.94;;;10.52;100.00
31771;BME280;18343;50.152;8.182;2023-04-02T05:56:19;96932.09;;;10.55;100.00
31771;BME280;18343;50.152;8.182;2023-04-02T05:59:10;96932.50;;;10.59;100.00
31771;BME280;18343;50.152;8.182;2023-04-02T06:02:00;96940.56;;;10.59;100.00
31771;BME280;18343;50.152;8.182;2023-04-02T06:04:52;96942.44;;;10.58;100.00
31771;BME280;18343;50.152;8.182;2023-04-02T06:07:43;96949.66;;;10.58;100.00
31771;BME280;18343;50.152;8.182;2023-04-02T06:10:34;96957.94;;;10.56;100.00
31771;BME280;18343;50.152;8.182;2023-04-02T06:13:20;96961.44;;;10.57;100.00
31771;BME280;18343;50.152;8.182;2023-04-02T06:16:05;96966.22;;;10.55;100.00
31771;BME280;18343;50.152;8.182;2023-04-02T06:18:52;96974.47;;;10.53;100.00
31771;BME280;18343;50.152;8.182;2023-04-02T06:21:43;96974.66;;;10.51;100.00
31771;BME280;18343;50.152;8.182;2023-04-02T06:24:29;96982.34;;;10.55;100.00
31771;BME280;18343;50.152;8.182;2023-04-02T06:27:17;96992.63;;;10.44;100.00
31771;BME280;18343;50.152;8.182;2023-04-02T06:30:06;96989.50;;;10.28;100.00
31771;BME280;18343;50.152;8.182;2023-04-02T06:32:57;96997.06;;;10.11;100.00
31771;BME280;18343;50.152;8.182;2023-04-02T06:35:43;97013.06;;;9.84;100.00
31771;BME280;18343;50.152;8.182;2023-04-02T06:38:30;97014.91;;;9.84;100.00
31771;BME280;18343;50.152;8.182;2023-04-02T06:41:20;97020.03;;;9.79;100.00
31771;BME280;18343;50.152;8.182;2023-04-02T06:44:11;97025.16;;;9.74;100.00
31771;BME280;18343;50.152;8.182;2023-04-02T06:47:01;97030.28;;;9.69;100.00
31771;BME280;18343;50.152;8.182;2023-04-02T06:49:52;97038.53;;;9.67;100.00
31771;BME280;18343;50.152;8.182;2023-04-02T06:52:46;97047.56;;;9.53;100.00
31771;BME280;18343;50.152;8.182;2023-04-02T06:55:44;97050.25;;;9.60;100.00
31771;BME280;18343;50.152;8.182;2023-04-02T06:58:30;97059.16;;;9.60;100.00
31771;BME280;18343;50.152;8.182;2023-04-02T07:01:18;97064.19;;;9.70;100.00
31771;BME280;18343;50.152;8.182;2023-04-02T07:04:05;97063.19;;;9.77;100.00
31771;BME280;18343;50.152;8.182;2023-04-02T07:06:50;97073.31;;;9.75;100.00
31771;BME280;18343;50.152;8.182;2023-04-02T07:09:36;97071.66;;;9.74;100.00
31771;BME280;18343;50.152;8.182;2023-04-02T07:12:23;97077.78;;;9.68;100.00
31771;BME280;18343;50.152;8.182;2023-04-02T07:15:11;97092.25;;;9.67;100.00
31771;BME280;18343;50.152;8.182;2023-04-02T07:17:58;97101.06;;;9.61;100.00
31771;BME280;18343;50.152;8.182;2023-04-02T07:20:43;97110.56;;;9.57;100.00
31771;BME280;18343;50.152;8.182;2023-04-02T07:23:28;97114.28;;;9.56;100.00
31771;BME280;18343;50.152;8.182;2023-04-02T07:26:18;97119.00;;;9.54;100.00
31771;BME280;18343;50.152;8.182;2023-04-02T07:29:05;97121.19;;;9.44;100.00
31771;BME280;18343;50.152;8.182;2023-04-02T07:31:50;97138.69;;;9.40;100.00
31771;BME280;18343;50.152;8.182;2023-04-02T07:34:34;97143.41;;;9.38;100.00
31771;BME280;18343;50.152;8.182;2023-04-02T07:37:19;97145.31;;;9.44;100.00
31771;BME280;18343;50.152;8.182;2023-04-02T07:40:05;97151.00;;;9.34;100.00
31771;BME280;18343;50.152;8.182;2023-04-02T07:42:51;97159.03;;;9.28;100.00
31771;BME280;18343;50.152;8.182;2023-04-02T07:45:36;97163.28;;;9.22;100.00
31771;BME280;18343;50.152;8.182;2023-04-02T07:48:21;97171.56;;;9.06;100.00
31771;BME280;18343;50.152;8.182;2023-04-02T07:51:13;97172.84;;;9.10;100.00
31771;BME280;18343;50.152;8.182;2023-04-02T07:53:58;97182.75;;;9.09;100.00
31771;BME280;18343;50.152;8.182;2023-04-02T07:56:42;97183.06;;;9.00;100.00
31771;BME280;18343;50.152;8.182;2023-04-02T07:59:28;97196.72;;;9.05;100.00
31771;BME280;18343;50.152;8.182;2023-04-02T08:02:20;97199.84;;;9.08;100.00
31771;BME280;18343;50.152;8.182;2023-04-02T08:05:06;97203.00;;;9.12;100.00
31771;BME280;18343;50.152;8.182;2023-04-02T08:07:54;97214.75;;;9.11;100.00
31771;BME280;18343;50.152;8.182;2023-04-02T08:10:39;97222.84;;;8.81;100.00
31771;BME280;18343;50.152;8.182;2023-04-02T08:13:24;97225.63;;;8.88;100.00
31771;BME280;18343;50.152;8.182;2023-04-02T08:16:10;97217.00;;;8.93;100.00
31771;BME280;18343;50.152;8.182;2023-04-02T08:18:55;97221.38;;;8.94;100.00
31771;BME280;18343;50.152;8.182;2023-04-02T08:25:39;97240.59;;;8.82;100.00
31771;BME280;18343;50.152;8.182;2023-04-02T08:28:23;97252.97;;;8.83;100.00
31771;BME280;18343;50.152;8.182;2023-04-02T08:31:09;97254.19;;;8.81;100.00
31771;BME280;18343;50.152;8.182;2023-04-02T08:33:54;97262.69;;;8.85;100.00
31771;BME280;18343;50.152;8.182;2023-04-02T08:36:41;97264.19;;;8.87;100.00
31771;BME280;18343;50.152;8.182;2023-04-02T08:39:26;97279.63;;;8.85;100.00
31771;BME280;18343;50.152;8.182;2023-04-02T08:42:22;97276.84;;;8.93;100.00
31771;BME280;18343;50.152;8.182;2023-04-02T08:45:18;97284.53;;;8.96;100.00
31771;BME280;18343;50.152;8.182;2023-04-02T08:48:06;97297.66;;;8.91;100.00
31771;BME280;18343;50.152;8.182;2023-04-02T08:50:53;97305.03;;;8.89;100.00
31771;BME280;18343;50.152;8.182;2023-04-02T08:53:38;97312.16;;;8.82;100.00
31771;BME280;18343;50.152;8.182;2023-04-02T08:56:30;97311.41;;;8.59;100.00
31771;BME280;18343;50.152;8.182;2023-04-02T08:59:25;97311.78;;;8.56;100.00
31771;BME280;18343;50.152;8.182;2023-04-02T09:02:26;97320.09;;;8.61;100.00
31771;BME280;18343;50.152;8.182;2023-04-02T09:05:21;97329.44;;;8.79;100.00
31771;BME280;18343;50.152;8.182;2023-04-02T09:08:16;97327.03;;;8.85;100.00
31771;BME280;18343;50.152;8.182;2023-04-02T09:11:07;97330.38;;;8.72;100.00
31771;BME280;18343;50.152;8.182;2023-04-02T09:13:58;97339.50;;;8.63;100.00
31771;BME280;18343;50.152;8.182;2023-04-02T09:16:47;97342.81;;;8.50;100.00
31771;BME280;18343;50.152;8.182;2023-04-02T09:19:36;97350.91;;;8.79;100.00
31771;BME280;18343;50.152;8.182;2023-04-02T09:22:24;97357.59;;;8.98;100.00
31771;BME280;18343;50.152;8.182;2023-04-02T09:25:16;97362.19;;;9.04;100.00
31771;BME280;18343;50.152;8.182;2023-04-02T09:28:03;97371.91;;;9.05;100.00
31771;BME280;18343;50.152;8.182;2023-04-02T09:31:04;97380.88;;;9.12;100.00
31771;BME280;18343;50.152;8.182;2023-04-02T09:33:52;97390.88;;;9.19;100.00
31771;BME280;18343;50.152;8.182;2023-04-02T09:36:38;97396.25;;;9.19;100.00
31771;BME280;18343;50.152;8.182;2023-04-02T09:39:25;97397.16;;;9.11;100.00
31771;BME280;18343;50.152;8.182;2023-04-02T09:42:29;97407.03;;;8.81;100.00
31771;BME280;18343;50.152;8.182;2023-04-02T09:45:20;97411.72;;;8.64;100.00
31771;BME280;18343;50.152;8.182;2023-04-02T09:48:22;97419.50;;;8.74;100.00
31771;BME280;18343;50.152;8.182;2023-04-02T09:51:13;97422.81;;;8.76;100.00
31771;BME280;18343;50.152;8.182;2023-04-02T09:54:07;97423.56;;;8.70;100.00
31771;BME280;18343;50.152;8.182;2023-04-02T09:57:03;97428.75;;;8.71;100.00
31771;BME280;18343;50.152;8.182;2023-04-02T10:00:09;97428.28;;;8.68;100.00
31771;BME280;18343;50.152;8.182;2023-04-02T10:03:03;97432.38;;;8.56;100.00
31771;BME280;18343;50.152;8.182;2023-04-02T10:05:49;97438.59;;;8.33;100.00
31771;BME280;18343;50.152;8.182;2023-04-02T10:08:47;97441.13;;;8.49;100.00
31771;BME280;18343;50.152;8.182;2023-04-02T10:11:33;97442.63;;;8.52;100.00
31771;BME280;18343;50.152;8.182;2023-04-02T10:14:24;97455.28;;;8.43;100.00
31771;BME280;18343;50.152;8.182;2023-04-02T10:17:16;97461.50;;;8.36;100.00
31771;BME280;18343;50.152;8.182;2023-04-02T10:20:07;97465.38;;;8.33;100.00
31771;BME280;18343;50.152;8.182;2023-04-02T10:22:58;97469.09;;;8.24;100.00
31771;BME280;18343;50.152;8.182;2023-04-02T10:25:50;97476.41;;;8.38;100.00
31771;BME280;18343;50.152;8.182;2023-04-02T10:29:00;97471.28;;;8.52;100.00
31771;BME280;18343;50.152;8.182;2023-04-02T10:31:58;97484.75;;;8.43;100.00
31771;BME280;18343;50.152;8.182;2023-04-02T10:34:51;97493.00;;;8.57;100.00
31771;BME280;18343;50.152;8.182;2023-04-02T10:38:15;97492.31;;;8.63;100.00
31771;BME280;18343;50.152;8.182;2023-04-02T10:41:14;97498.81;;;8.68;100.00
31771;BME280;18343;50.152;8.182;2023-04-02T10:44:24;97497.28;;;8.89;100.00
31771;BME280;18343;50.152;8.182;2023-04-02T10:47:27;97510.81;;;8.95;100.00
31771;BME280;18343;50.152;8.182;2023-04-02T10:50:26;97516.59;;;8.61;100.00
31771;BME280;18343;50.152;8.182;2023-04-02T10:53:15;97523.28;;;8.42;100.00
31771;BME280;18343;50.152;8.182;2023-04-02T10:56:03;97518.41;;;8.46;100.00
31771;BME280;18343;50.152;8.182;2023-04-02T10:58:56;97526.31;;;8.39;100.00
31771;BME280;18343;50.152;8.182;2023-04-02T11:01:43;97530.53;;;8.57;100.00
31771;BME280;18343;50.152;8.182;2023-04-02T11:04:38;97537.91;;;8.55;100.00
31771;BME280;18343;50.152;8.182;2023-04-02T11:07:27;97543.84;;;8.73;100.00
31771;BME280;18343;50.152;8.182;2023-04-02T11:10:15;97546.81;;;8.78;100.00
31771;BME280;18343;50.152;8.182;2023-04-02T11:13:07;97550.13;;;8.80;100.00
31771;BME280;18343;50.152;8.182;2023-04-02T11:15:56;97553.78;;;8.64;100.00
31771;BME280;18343;50.152;8.182;2023-04-02T11:18:42;97556.88;;;8.76;100.00
31771;BME280;18343;50.152;8.182;2023-04-02T11:21:49;97560.09;;;8.94;100.00
31771;BME280;18343;50.152;8.182;2023-04-02T11:24:41;97566.41;;;8.78;100.00
31771;BME280;18343;50.152;8.182;2023-04-02T11:27:28;97569.56;;;8.82;100.00
31771;BME280;18343;50.152;8.182;2023-04-02T11:30:21;97576.16;;;9.02;100.00
31771;BME280;18343;50.152;8.182;2023-04-02T11:33:24;97582.09;;;9.12;100.00
31771;BME280;18343;50.152;8.182;2023-04-02T11:37:02;97589.06;;;9.22;100.00
31771;BME280;18343;50.152;8.182;2023-04-02T11:39:54;97596.56;;;9.26;100.00
31771;BME280;18343;50.152;8.182;2023-04-02T11:42:40;97598.66;;;9.16;100.00
31771;BME280;18343;50.152;8.182;2023-04-02T11:45:53;97603.31;;;8.99;100.00
31771;BME280;18343;50.152;8.182;2023-04-02T11:48:38;97610.75;;;9.12;100.00
31771;BME280;18343;50.152;8.182;2023-04-02T11:51:55;97607.28;;;9.03;100.00
31771;BME280;18343;50.152;8.182;2023-04-02T11:54:42;97617.75;;;8.98;100.00
31771;BME280;18343;50.152;8.182;2023-04-02T11:57:44;97624.13;;;8.97;100.00
31771;BME280;18343;50.152;8.182;2023-04-02T12:04:15;97639.28;;;8.82;100.00
31771;BME280;18343;50.152;8.182;2023-04-02T12:07:33;97638.22;;;8.68;100.00
31771;BME280;18343;50.152;8.182;2023-04-02T12:10:22;97648.72;;;8.47;100.00
31771;BME280;18343;50.152;8.182;2023-04-02T12:13:18;97651.56;;;8.45;100.00
31771;BME280;18343;50.152;8.182;2023-04-02T12:16:03;97657.22;;;8.51;100.00
31771;BME280;18343;50.152;8.182;2023-04-02T12:18:50;97654.47;;;8.67;100.00
31771;BME280;18343;50.152;8.182;2023-04-02T12:21:37;97655.91;;;8.77;100.00
31771;BME280;18343;50.152;8.182;2023-04-02T12:24:23;97675.16;;;8.81;100.00
31771;BME280;18343;50.152;8.182;2023-04-02T12:27:17;97666.63;;;8.77;100.00
31771;BME280;18343;50.152;8.182;2023-04-02T12:30:15;97673.22;;;8.67;100.00
31771;BME280;18343;50.152;8.182;2023-04-02T12:33:15;97676.44;;;8.62;100.00
31771;BME280;18343;50.152;8.182;2023-04-02T12:36:02;97678.06;;;8.71;100.00
31771;BME280;18343;50.152;8.182;2023-04-02T12:38:50;97688.22;;;8.84;100.00
31771;BME280;18343;50.152;8.182;2023-04-02T12:41:36;97686.34;;;8.93;100.00
31771;BME280;18343;50.152;8.182;2023-04-02T12:44:24;97699.41;;;8.96;100.00
31771;BME280;18343;50.152;8.182;2023-04-02T12:47:11;97704.94;;;8.94;100.00
31771;BME280;18343;50.152;8.182;2023-04-02T12:49:58;97705.28;;;8.91;100.00
31771;BME280;18343;50.152;8.182;2023-04-02T12:52:45;97710.00;;;8.89;100.00
31771;BME280;18343;50.152;8.182;2023-04-02T12:55:31;97711.44;;;8.69;100.00
31771;BME280;18343;50.152;8.182;2023-04-02T12:58:29;97720.44;;;8.76;100.00
31771;BME280;18343;50.152;8.182;2023-04-02T13:01:18;97731.53;;;8.73;100.00
31771;BME280;18343;50.152;8.182;2023-04-02T13:04:05;97724.88;;;8.53;100.00
31771;BME280;18343;50.152;8.182;2023-04-02T13:06:51;97728.56;;;8.52;100.00
31771;BME280;18343;50.152;8.182;2023-04-02T13:09:43;97732.63;;;8.39;100.00
31771;BME280;18343;50.152;8.182;2023-04-02T13:12:32;97737.84;;;8.33;100.00
31771;BME280;18343;50.152;8.182;2023-04-02T13:15:21;97739.00;;;8.38;100.00
31771;BME280;18343;50.152;8.182;2023-04-02T13:18:18;97735.13;;;8.25;100.00
31771;BME280;18343;50.152;8.182;2023-04-02T13:21:04;97743.72;;;7.96;100.00
31771;BME280;18343;50.152;8.182;2023-04-02T13:23:49;97739.53;;;8.18;100.00
31771;BME280;18343;50.152;8.182;2023-04-02T13:26:34;97739.16;;;8.29;100.00
31771;BME280;18343;50.152;8.182;2023-04-02T13:29:23;97734.97;;;8.42;100.00
31771;BME280;18343;50.152;8.182;2023-04-02T13:32:11;97734.25;;;8.48;100.00
31771;BME280;18343;50.152;8.182;2023-04-02T13:34:58;97741.47;;;8.48;100.00
31771;BME280;18343;50.152;8.182;2023-04-02T13:37:43;97748.03;;;8.45;100.00
31771;BME280;18343;50.152;8.182;2023-04-02T13:40:28;97749.00;;;8.53;100.00
31771;BME280;18343;50.152;8.182;2023-04-02T13:43:17;97744.38;;;8.77;100.00
31771;BME280;18343;50.152;8.182;2023-04-02T13:46:05;97757.75;;;8.94;100.00
31771;BME280;18343;50.152;8.182;2023-04-02T13:48:51;97767.22;;;9.04;100.00
31771;BME280;18343;50.152;8.182;2023-04-02T13:51:40;97764.88;;;9.09;100.00
31771;BME280;18343;50.152;8.182;2023-04-02T13:54:28;97774.66;;;9.02;100.00
31771;BME280;18343;50.152;8.182;2023-04-02T13:57:14;97774.28;;;9.05;100.00
31771;BME280;18343;50.152;8.182;2023-04-02T13:59:58;97785.38;;;9.02;100.00
31771;BME280;18343;50.152;8.182;2023-04-02T14:02:46;97778.03;;;8.96;100.00
31771;BME280;18343;50.152;8.182;2023-04-02T14:05:40;97783.22;;;8.90;100.00
31771;BME280;18343;50.152;8.182;2023-04-02T14:08:43;97789.78;;;8.79;100.00
31771;BME280;18343;50.152;8.182;2023-04-02T14:11:55;97793.16;;;8.81;100.00
31771;BME280;18343;50.152;8.182;2023-04-02T14:14:57;97797.66;;;8.89;100.00
31771;BME280;18343;50.152;8.182;2023-04-02T14:18:20;97796.16;;;8.86;100.00
31771;BME280;18343;50.152;8.182;2023-04-02T14:21:18;97804.25;;;8.70;100.00
31771;BME280;18343;50.152;8.182;2023-04-02T14:24:17;97810.31;;;8.56;100.00
31771;BME280;18343;50.152;8.182;2023-04-02T14:27:14;97813.38;;;8.44;100.00
31771;BME280;18343;50.152;8.182;2023-04-02T14:30:06;97815.38;;;8.42;100.00
31771;BME280;18343;50.152;8.182;2023-04-02T14:33:05;97819.41;;;8.38;100.00
31771;BME280;18343;50.152;8.182;2023-04-02T14:35:58;97828.59;;;8.44;100.00
31771;BME280;18343;50.152;8.182;2023-04-02T14:38:54;97827.09;;;8.33;100.00
31771;BME280;18343;50.152;8.182;2023-04-02T14:41:47;97833.81;;;8.37;100.00
31771;BME280;18343;50.152;8.182;2023-04-02T14:44:38;97840.66;;;8.40;100.00
31771;BME280;18343;50.152;8.182;2023-04-02T14:47:30;97834.81;;;8.36;100.00
31771;BME280;18343;50.152;8.182;2023-04-02T14:50:23;97847.19;;;8.37;100.00
31771;BME280;18343;50.152;8.182;2023-04-02T14:53:16;97851.38;;;8.40;100.00
31771;BME280;18343;50.152;8.182;2023-04-02T14:56:06;97847.31;;;8.28;100.00
31771;BME280;18343;50.152;8.182;2023-04-02T14:59:04;97850.03;;;8.36;100.00
31771;BME280;18343;50.152;8.182;2023-04-02T15:01:54;97852.72;;;8.36;100.00
31771;BME280;18343;50.152;8.182;2023-04-02T15:04:55;97855.19;;;8.21;100.00
31771;BME280;18343;50.152;8.182;2023-04-02T15:07:47;97867.94;;;8.11;100.00
31771;BME280;18343;50.152;8.182;2023-04-02T15:10:35;97868.41;;;7.98;100.00